Time;durP1;ratioP1;P1;durP2;ratioP2;P2;SDS_P1;SDS_P2;PMS_P1;PMS_P2;Temp;Humidity;BMP_temperature;BMP_pressure;BME280_temperature;BME280_humidity;BME280_pressure;Samples;Min_cycle;Max_cycle;Signal;HPM_P1;HPM_P2
2022/08/10 00:00:26;;;;;;;1.05;0.95;;;16.80;99.90;;;;;;4997604;28;20053;-82
2022/08/10 00:02:55;;;;;;;0.80;0.80;;;16.80;99.90;;;;;;5003717;28;20164;-82
2022/08/10 00:05:22;;;;;;;1.98;0.80;;;16.70;99.90;;;;;;4998859;28;20413;-81
2022/08/10 00:07:47;;;;;;;3.25;0.82;;;16.70;99.90;;;;;;5012674;28;20052;-80
2022/08/10 00:10:15;;;;;;;1.75;1.00;;;16.60;99.90;;;;;;4998622;28;20475;-80
2022/08/10 00:12:41;;;;;;;1.40;1.10;;;16.60;99.90;;;;;;5006550;28;20022;-80
2022/08/10 00:15:08;;;;;;;1.45;1.20;;;16.60;99.90;;;;;;5003212;28;20022;-81
2022/08/10 00:17:34;;;;;;;1.25;1.02;;;16.50;99.90;;;;;;5006462;28;20033;-83
2022/08/10 00:20:01;;;;;;;1.60;0.95;;;16.50;99.90;;;;;;5003817;28;20396;-85
2022/08/10 00:22:26;;;;;;;1.27;1.17;;;16.40;99.90;;;;;;5006562;28;20053;-83
2022/08/10 00:24:56;;;;;;;0.70;0.70;;;16.40;99.90;;;;;;4999769;28;20030;-84
2022/08/10 00:27:22;;;;;;;2.03;1.33;;;16.40;99.90;;;;;;5003140;28;20026;-84
2022/08/10 00:29:47;;;;;;;2.22;1.05;;;16.30;99.90;;;;;;5003628;28;20153;-84
2022/08/10 00:32:13;;;;;;;1.13;0.77;;;16.30;99.90;;;;;;4996096;28;20057;-87
2022/08/10 00:34:38;;;;;;;2.10;0.80;;;16.20;99.90;;;;;;5001529;28;20034;-85
2022/08/10 00:37:04;;;;;;;2.33;1.23;;;16.20;99.90;;;;;;5007220;28;20022;-84
2022/08/10 00:39:29;;;;;;;3.10;1.05;;;16.20;99.90;;;;;;5006364;28;20045;-84
2022/08/10 00:41:55;;;;;;;1.33;1.05;;;16.20;99.90;;;;;;4999561;28;20088;-84
2022/08/10 00:44:21;;;;;;;1.25;0.95;;;16.20;99.90;;;;;;4995469;28;20719;-85
2022/08/10 00:46:46;;;;;;;1.65;1.10;;;16.10;99.90;;;;;;4997471;28;20026;-83
2022/08/10 00:49:13;;;;;;;0.82;0.70;;;16.10;99.90;;;;;;5000585;28;20034;-83
2022/08/10 00:51:39;;;;;;;0.68;0.63;;;16.00;99.90;;;;;;4994999;28;20018;-82
2022/08/10 00:54:05;;;;;;;5.43;2.40;;;16.00;99.90;;;;;;5003843;28;20472;-82
2022/08/10 00:56:31;;;;;;;0.60;0.60;;;16.00;99.90;;;;;;5004753;28;20049;-81
2022/08/10 00:58:57;;;;;;;1.38;1.00;;;15.90;99.90;;;;;;4999881;28;20109;-81
2022/08/10 01:01:22;;;;;;;0.65;0.60;;;15.90;99.90;;;;;;5003296;28;20113;-82
2022/08/10 01:03:48;;;;;;;1.38;1.25;;;15.90;99.90;;;;;;5004593;28;20116;-83
2022/08/10 01:06:35;;;;;;;1.33;0.93;;;15.80;99.90;;;;;;5005928;28;20037;-82
2022/08/10 01:09:09;;;;;;;1.70;1.15;;;15.80;99.90;;;;;;4997800;28;20413;-79
2022/08/10 01:11:53;;;;;;;0.90;0.85;;;15.80;99.90;;;;;;5009068;28;20106;-75
2022/08/10 01:14:36;;;;;;;1.13;0.93;;;15.80;99.90;;;;;;5005850;28;20037;-76
2022/08/10 01:17:14;;;;;;;1.15;1.05;;;15.70;99.90;;;;;;5012583;28;20037;-74
2022/08/10 01:20:02;;;;;;;0.95;0.88;;;15.70;99.90;;;;;;5008940;28;20030;-75
2022/08/10 01:22:57;;;;;;;0.75;0.75;;;15.70;99.90;;;;;;5000764;28;20031;-74
2022/08/10 01:25:35;;;;;;;1.35;1.20;;;15.70;99.90;;;;;;5003917;28;20064;-74
2022/08/10 01:28:29;;;;;;;0.68;0.68;;;15.60;99.90;;;;;;4998487;28;20050;-74
2022/08/10 01:30:59;;;;;;;1.25;1.10;;;15.60;99.90;;;;;;5003803;28;20094;-75
2022/08/10 01:33:40;;;;;;;1.40;1.10;;;15.60;99.90;;;;;;5005270;28;20090;-75
2022/08/10 01:36:13;;;;;;;2.00;1.20;;;15.60;99.90;;;;;;5004605;28;20114;-74
2022/08/10 01:38:42;;;;;;;0.95;0.93;;;15.50;99.90;;;;;;5004381;28;20105;-74
2022/08/10 01:41:28;;;;;;;3.17;1.17;;;15.50;99.90;;;;;;4995668;28;20023;-74
2022/08/10 01:44:12;;;;;;;0.80;0.80;;;15.50;99.90;;;;;;5008151;28;20105;-74
2022/08/10 01:46:41;;;;;;;1.10;1.00;;;15.50;99.90;;;;;;5009662;28;20058;-74
2022/08/10 01:49:10;;;;;;;1.73;1.17;;;15.50;99.90;;;;;;5005460;28;20038;-74
2022/08/10 01:51:41;;;;;;;1.33;1.00;;;15.40;99.90;;;;;;5008038;28;20730;-74
2022/08/10 01:54:09;;;;;;;1.50;1.27;;;15.40;99.90;;;;;;5006202;28;20488;-75
2022/08/10 01:56:57;;;;;;;1.55;1.20;;;15.40;99.90;;;;;;5004589;28;20046;-75
2022/08/10 01:59:37;;;;;;;1.58;1.02;;;15.40;99.90;;;;;;5006763;28;20030;-73
2022/08/10 02:02:08;;;;;;;1.17;0.90;;;15.30;99.90;;;;;;5002641;28;20026;-74
2022/08/10 02:04:40;;;;;;;1.25;1.00;;;15.30;99.90;;;;;;5001908;28;20404;-73
2022/08/10 02:07:10;;;;;;;1.33;1.20;;;15.30;99.90;;;;;;5010810;28;20046;-73
2022/08/10 02:09:41;;;;;;;2.72;1.02;;;15.30;99.90;;;;;;5005094;28;20484;-74
2022/08/10 02:12:09;;;;;;;1.52;1.08;;;15.30;99.90;;;;;;5006141;28;20034;-75
2022/08/10 02:14:48;;;;;;;1.33;0.90;;;15.20;99.90;;;;;;4998838;28;20087;-75
2022/08/10 02:17:18;;;;;;;1.13;1.00;;;15.20;99.90;;;;;;5007816;28;20029;-74
2022/08/10 02:19:45;;;;;;;2.03;1.45;;;15.20;99.90;;;;;;5005076;28;20500;-74
2022/08/10 02:22:13;;;;;;;1.38;1.27;;;15.20;99.90;;;;;;5005606;28;20084;-74
2022/08/10 02:24:41;;;;;;;2.13;0.90;;;15.10;99.90;;;;;;5006772;28;20040;-74
2022/08/10 02:27:08;;;;;;;1.73;1.13;;;15.00;99.90;;;;;;4999425;28;20033;-74
2022/08/10 02:29:35;;;;;;;1.13;0.98;;;15.00;99.90;;;;;;5004184;28;20055;-73
2022/08/10 02:32:01;;;;;;;1.55;1.13;;;15.00;99.90;;;;;;5008421;28;20045;-74
2022/08/10 02:34:27;;;;;;;0.95;0.88;;;15.00;99.90;;;;;;5006103;28;20038;-73
2022/08/10 02:36:56;;;;;;;2.08;1.17;;;15.00;99.90;;;;;;5018345;28;20017;-73
2022/08/10 02:39:23;;;;;;;1.52;0.93;;;14.90;99.90;;;;;;5006077;28;20080;-74
2022/08/10 02:41:51;;;;;;;1.67;1.10;;;14.90;99.90;;;;;;5006038;28;20504;-74
2022/08/10 02:44:38;;;;;;;0.88;0.85;;;14.80;99.90;;;;;;5005329;28;20060;-75
2022/08/10 02:47:11;;;;;;;0.70;0.68;;;14.80;99.90;;;;;;4999471;28;20490;-75
2022/08/10 02:49:50;;;;;;;1.23;1.13;;;14.80;99.90;;;;;;4999525;28;20117;-75
2022/08/10 02:52:23;;;;;;;2.25;1.40;;;14.80;99.90;;;;;;4998410;28;20038;-74
2022/08/10 02:54:54;;;;;;;1.30;1.00;;;14.80;99.90;;;;;;5005511;28;20067;-74
2022/08/10 02:57:24;;;;;;;1.65;1.05;;;14.80;99.90;;;;;;5003552;28;20053;-74
2022/08/10 02:59:52;;;;;;;1.13;0.98;;;14.70;99.90;;;;;;4997303;28;20038;-74
2022/08/10 03:02:35;;;;;;;3.83;1.70;;;14.70;99.90;;;;;;5003107;28;20030;-73
2022/08/10 03:05:08;;;;;;;1.27;1.17;;;14.70;99.90;;;;;;5004194;28;20034;-73
2022/08/10 03:07:48;;;;;;;1.42;1.33;;;14.70;99.90;;;;;;5012121;28;20034;-73
2022/08/10 03:10:20;;;;;;;6.35;1.40;;;14.70;99.90;;;;;;5011746;28;20029;-74
2022/08/10 03:12:49;;;;;;;;;;;14.60;99.90;;;;;;4999442;28;20030;-74
2022/08/10 03:15:17;;;;;;;2.17;1.02;;;14.60;99.90;;;;;;5006038;28;19913;-74
2022/08/10 03:17:47;;;;;;;1.60;1.30;;;14.60;99.90;;;;;;4996191;28;20065;-73
2022/08/10 03:20:14;;;;;;;1.30;0.98;;;14.60;99.90;;;;;;4999745;28;20246;-74
2022/08/10 03:22:41;;;;;;;1.58;1.48;;;14.60;99.90;;;;;;5007228;28;20428;-73
2022/08/10 03:25:09;;;;;;;0.85;0.85;;;14.50;99.90;;;;;;5004236;28;20508;-73
2022/08/10 03:27:35;;;;;;;1.05;0.95;;;14.50;99.90;;;;;;5005892;28;20029;-73
2022/08/10 03:30:01;;;;;;;0.98;0.80;;;14.50;99.90;;;;;;5002785;28;20033;-73
2022/08/10 03:32:27;;;;;;;0.88;0.82;;;14.50;99.90;;;;;;5007051;28;20080;-74
2022/08/10 03:34:53;;;;;;;1.67;1.02;;;14.50;99.90;;;;;;5000891;28;20045;-73
2022/08/10 03:37:19;;;;;;;1.45;1.10;;;14.50;99.90;;;;;;5005543;28;20073;-72
2022/08/10 03:39:44;;;;;;;3.00;1.58;;;14.40;99.90;;;;;;5006802;28;20034;-74
2022/08/10 03:42:14;;;;;;;1.73;1.10;;;14.50;99.90;;;;;;5002692;28;20548;-73
2022/08/10 03:44:42;;;;;;;1.75;1.10;;;14.50;99.90;;;;;;5003390;28;20026;-74
2022/08/10 03:47:10;;;;;;;1.58;1.38;;;14.40;99.90;;;;;;4992745;28;20027;-73
2022/08/10 03:49:38;;;;;;;3.55;1.42;;;14.40;99.90;;;;;;4994280;28;20084;-73
2022/08/10 03:52:05;;;;;;;1.85;1.15;;;14.40;99.90;;;;;;5005994;28;20114;-74
2022/08/10 03:54:32;;;;;;;2.10;1.40;;;14.50;99.90;;;;;;5002088;28;20380;-73
2022/08/10 03:56:57;;;;;;;3.33;1.30;;;14.50;99.90;;;;;;5003398;28;20125;-73
2022/08/10 03:59:23;;;;;;;2.42;1.15;;;14.40;99.90;;;;;;5001406;28;20474;-73
2022/08/10 04:01:50;;;;;;;1.63;1.13;;;14.50;99.90;;;;;;5006864;28;20040;-73
2022/08/10 04:04:15;;;;;;;1.88;1.20;;;14.50;99.90;;;;;;4997198;28;20033;-74
2022/08/10 04:06:41;;;;;;;2.60;1.13;;;14.50;99.90;;;;;;5001958;28;20038;-73
2022/08/10 04:09:08;;;;;;;0.85;0.82;;;14.50;99.90;;;;;;5001897;28;20048;-73
2022/08/10 04:11:35;;;;;;;3.30;1.73;;;14.50;99.90;;;;;;4997634;28;20068;-74
2022/08/10 04:14:02;;;;;;;1.27;1.17;;;14.50;99.90;;;;;;5000143;28;20038;-74
2022/08/10 04:16:27;;;;;;;2.35;1.45;;;14.50;99.90;;;;;;5005028;28;20488;-73
2022/08/10 04:18:53;;;;;;;2.28;1.42;;;14.40;99.90;;;;;;5012924;28;20029;-73
2022/08/10 04:21:25;;;;;;;2.90;1.20;;;14.50;99.90;;;;;;5006291;28;20137;-73
2022/08/10 04:23:52;;;;;;;1.67;1.50;;;14.50;99.90;;;;;;5000010;28;20053;-73
2022/08/10 04:26:18;;;;;;;1.33;1.13;;;14.50;99.90;;;;;;4999823;28;20053;-74
2022/08/10 04:28:43;;;;;;;2.13;1.40;;;14.60;99.90;;;;;;5000646;28;20026;-74
2022/08/10 04:31:13;;;;;;;4.93;1.38;;;14.60;99.90;;;;;;5011266;28;20661;-74
2022/08/10 04:33:42;;;;;;;1.95;1.38;;;14.60;99.90;;;;;;4993450;28;20449;-74
2022/08/10 04:36:10;;;;;;;3.67;1.25;;;14.60;99.90;;;;;;4997730;28;20097;-74
2022/08/10 04:38:36;;;;;;;2.30;1.40;;;14.70;99.90;;;;;;4999548;28;20037;-74
2022/08/10 04:41:02;;;;;;;5.53;1.65;;;14.70;99.90;;;;;;4994722;28;20049;-74
2022/08/10 04:43:27;;;;;;;2.28;1.20;;;14.80;99.90;;;;;;5001174;28;20076;-74
2022/08/10 04:45:53;;;;;;;2.85;1.77;;;14.80;99.90;;;;;;5003855;28;20400;-74
2022/08/10 04:48:23;;;;;;;2.05;1.38;;;14.80;99.90;;;;;;5004270;28;20053;-74
2022/08/10 04:50:49;;;;;;;2.90;1.80;;;14.90;99.90;;;;;;5004123;28;20041;-75
2022/08/10 04:53:15;;;;;;;1.95;1.27;;;14.90;99.90;;;;;;5006071;28;20018;-74
2022/08/10 04:55:40;;;;;;;1.85;1.20;;;15.00;99.90;;;;;;5005167;28;20049;-73
2022/08/10 04:58:06;;;;;;;2.08;1.70;;;15.00;99.90;;;;;;5007151;28;20030;-74
2022/08/10 05:00:31;;;;;;;8.73;2.00;;;15.00;99.90;;;;;;5009512;28;20091;-74
2022/08/10 05:02:57;;;;;;;2.03;1.23;;;15.10;99.90;;;;;;5007151;28;20116;-74
2022/08/10 05:05:22;;;;;;;2.33;1.60;;;15.10;99.90;;;;;;5008037;28;20473;-74
2022/08/10 05:07:48;;;;;;;2.53;1.30;;;15.10;99.90;;;;;;5009987;28;20030;-74
2022/08/10 05:10:13;;;;;;;1.88;1.50;;;15.20;99.90;;;;;;5007488;28;20053;-74
2022/08/10 05:12:39;;;;;;;3.53;2.20;;;15.20;99.90;;;;;;5008263;28;20037;-74
2022/08/10 05:15:09;;;;;;;1.70;1.58;;;15.30;99.90;;;;;;5002649;28;20580;-73
2022/08/10 05:17:36;;;;;;;5.00;2.03;;;15.30;99.90;;;;;;5005043;28;20029;-74
2022/08/10 05:20:03;;;;;;;9.13;2.72;;;15.30;99.90;;;;;;5000236;28;20038;-73
2022/08/10 05:22:28;;;;;;;2.72;1.80;;;15.40;99.90;;;;;;5005217;28;20401;-74
2022/08/10 05:24:54;;;;;;;1.77;1.50;;;15.50;99.90;;;;;;5007083;28;20042;-75
2022/08/10 05:27:19;;;;;;;2.10;1.63;;;15.60;99.90;;;;;;5005211;28;20026;-74
2022/08/10 05:29:45;;;;;;;2.88;1.58;;;15.70;99.90;;;;;;5007310;28;20034;-74
2022/08/10 05:32:10;;;;;;;1.92;1.58;;;15.70;99.90;;;;;;5004526;28;20030;-74
2022/08/10 05:34:36;;;;;;;2.35;2.05;;;15.80;99.90;;;;;;5000303;28;20614;-74
2022/08/10 05:37:02;;;;;;;2.55;1.60;;;15.90;99.90;;;;;;5000601;28;20476;-75
2022/08/10 05:39:28;;;;;;;2.72;2.00;;;16.00;99.90;;;;;;5003576;28;20205;-75
2022/08/10 05:41:53;;;;;;;3.72;1.77;;;16.10;99.90;;;;;;5004135;28;20026;-74
2022/08/10 05:44:20;;;;;;;2.95;2.08;;;16.20;99.90;;;;;;5006152;28;20034;-73
2022/08/10 05:46:47;;;;;;;2.47;1.90;;;16.20;99.90;;;;;;5008438;28;20121;-74
2022/08/10 05:49:12;;;;;;;2.58;1.77;;;16.20;99.90;;;;;;5006246;28;20058;-73
2022/08/10 05:51:38;;;;;;;2.40;1.08;;;16.20;99.90;;;;;;5006983;28;20065;-73
2022/08/10 05:54:11;;;;;;;2.45;1.75;;;16.40;99.90;;;;;;5000280;28;20116;-74
2022/08/10 05:56:38;;;;;;;2.40;1.45;;;16.40;99.90;;;;;;5002328;28;20129;-73
2022/08/10 05:59:03;;;;;;;2.50;1.30;;;16.50;99.90;;;;;;4995211;28;20042;-75
2022/08/10 06:01:30;;;;;;;2.28;1.50;;;16.60;99.90;;;;;;5002086;28;20125;-73
2022/08/10 06:03:58;;;;;;;3.10;1.55;;;16.60;99.90;;;;;;5004807;28;20120;-75
2022/08/10 06:06:26;;;;;;;1.63;1.38;;;16.60;99.90;;;;;;5004911;28;20030;-73
2022/08/10 06:08:54;;;;;;;1.30;1.10;;;16.80;99.90;;;;;;5008936;28;20186;-73
2022/08/10 06:11:21;;;;;;;3.25;1.73;;;16.80;99.90;;;;;;5006801;28;20412;-73
2022/08/10 06:16:33;;;;;;;1.50;1.23;;;16.90;99.90;;;;;;5005501;28;20032;-73
2022/08/10 06:19:00;;;;;;;1.48;1.15;;;17.00;99.90;;;;;;5002788;28;20030;-72
2022/08/10 06:21:27;;;;;;;2.05;1.58;;;17.10;99.90;;;;;;5008275;28;20026;-73
2022/08/10 06:23:53;;;;;;;1.80;1.50;;;17.10;99.90;;;;;;5005459;28;20034;-73
2022/08/10 06:26:19;;;;;;;2.13;1.45;;;17.20;99.90;;;;;;5004184;28;20030;-72
2022/08/10 06:28:51;;;;;;;3.13;1.40;;;17.30;99.90;;;;;;5004405;28;20037;-72
2022/08/10 06:31:17;;;;;;;1.95;1.17;;;17.30;99.90;;;;;;4998474;28;20374;-72
2022/08/10 06:33:44;;;;;;;2.20;1.30;;;17.40;99.90;;;;;;5004606;28;20030;-73
2022/08/10 06:36:11;;;;;;;3.63;1.30;;;17.50;99.90;;;;;;4999528;28;20033;-73
2022/08/10 06:38:38;;;;;;;2.60;1.48;;;17.50;99.90;;;;;;5003529;28;20489;-72
2022/08/10 06:41:12;;;;;;;5.28;1.20;;;17.60;99.90;;;;;;5000776;28;20030;-72
2022/08/10 06:43:43;;;;;;;1.38;1.13;;;17.70;99.90;;;;;;4992346;28;20064;-72
2022/08/10 06:46:14;;;;;;;2.85;1.40;;;17.80;99.90;;;;;;4998244;28;20026;-72
2022/08/10 06:48:50;;;;;;;;;;;18.00;99.90;;;;;;4999874;28;20037;-72
2022/08/10 06:51:26;;;;;;;1.75;1.52;;;18.00;99.90;;;;;;5007057;28;20284;-73
2022/08/10 06:53:55;;;;;;;0.93;0.93;;;18.10;99.90;;;;;;5000491;28;20026;-72
2022/08/10 06:56:26;;;;;;;1.42;1.05;;;18.10;99.90;;;;;;5003472;28;20042;-72
2022/08/10 06:59:04;;;;;;;1.27;1.17;;;18.20;99.90;;;;;;5006101;28;20041;-72
2022/08/10 07:01:34;;;;;;;1.20;1.10;;;18.30;99.90;;;;;;5003743;28;20034;-72
2022/08/10 07:04:10;;;;;;;1.23;1.13;;;18.60;99.90;;;;;;5003627;28;20034;-72
2022/08/10 07:06:39;;;;;;;3.38;1.65;;;18.80;99.90;;;;;;5011470;28;20047;-72
2022/08/10 07:09:05;;;;;;;1.95;1.38;;;18.80;99.90;;;;;;5005633;28;20551;-73
2022/08/10 07:11:32;;;;;;;4.28;1.65;;;19.00;99.90;;;;;;5000212;28;20056;-72
2022/08/10 07:13:59;;;;;;;1.00;0.95;;;19.10;99.90;;;;;;4995182;28;20251;-72
2022/08/10 07:16:27;;;;;;;2.45;1.08;;;19.20;99.90;;;;;;5004786;28;20037;-72
2022/08/10 07:18:55;;;;;;;1.40;1.27;;;19.40;99.90;;;;;;5006072;28;20519;-72
2022/08/10 07:21:22;;;;;;;0.98;0.93;;;19.40;99.90;;;;;;5003916;28;20500;-72
2022/08/10 07:23:49;;;;;;;1.30;1.20;;;19.50;99.90;;;;;;5003532;28;20041;-73
2022/08/10 07:26:16;;;;;;;1.45;1.23;;;19.50;99.90;;;;;;4997911;28;20129;-73
2022/08/10 07:28:43;;;;;;;1.25;1.15;;;19.80;99.90;;;;;;5008781;28;20038;-72
2022/08/10 07:31:09;;;;;;;2.03;1.10;;;19.70;99.90;;;;;;5003265;28;20029;-73
2022/08/10 07:33:36;;;;;;;1.98;1.00;;;19.70;99.90;;;;;;5001673;28;20026;-72
2022/08/10 07:36:03;;;;;;;1.42;0.95;;;19.80;99.90;;;;;;5001964;28;20045;-72
2022/08/10 07:38:30;;;;;;;2.45;1.58;;;20.10;99.90;;;;;;4999198;28;20105;-72
2022/08/10 07:40:59;;;;;;;1.38;1.00;;;20.10;99.90;;;;;;4994884;28;20457;-72
2022/08/10 07:43:26;;;;;;;1.20;1.10;;;20.20;99.90;;;;;;5007476;28;20037;-72
2022/08/10 07:45:52;;;;;;;1.75;1.20;;;20.30;99.90;;;;;;5005711;28;20036;-72
2022/08/10 07:48:23;;;;;;;1.00;0.90;;;20.50;99.90;;;;;;5001689;28;20021;-72
2022/08/10 07:50:50;;;;;;;;;;;20.50;99.90;;;;;;5001454;28;20034;-72
2022/08/10 07:53:42;;;;;;;2.53;1.40;;;20.50;99.90;;;;;;5000038;28;19957;-73
2022/08/10 07:56:09;;;;;;;1.30;1.10;;;20.50;99.90;;;;;;4999553;28;20085;-75
2022/08/10 07:58:39;;;;;;;1.40;1.30;;;20.50;99.90;;;;;;5005503;28;20033;-74
2022/08/10 08:01:05;;;;;;;1.70;1.20;;;20.60;99.90;;;;;;5000819;28;20169;-74
2022/08/10 08:03:32;;;;;;;3.67;1.23;;;20.60;99.90;;;;;;5007275;28;20120;-76
2022/08/10 08:06:00;;;;;;;1.45;1.17;;;20.60;99.70;;;;;;5005629;28;20022;-75
2022/08/10 08:08:28;;;;;;;1.35;0.90;;;20.60;99.40;;;;;;5004390;28;20029;-80
2022/08/10 08:10:54;;;;;;;0.98;0.98;;;20.70;98.30;;;;;;4999830;28;20069;-75
2022/08/10 08:13:20;;;;;;;1.48;1.20;;;20.80;97.40;;;;;;5002769;28;20651;-72
2022/08/10 08:15:47;;;;;;;1.33;1.20;;;20.90;97.90;;;;;;5000411;28;20517;-74
2022/08/10 08:18:14;;;;;;;2.15;1.40;;;20.80;97.00;;;;;;5000288;28;20026;-73
2022/08/10 08:20:40;;;;;;;1.48;1.20;;;21.00;97.00;;;;;;5007023;28;20037;-74
2022/08/10 08:23:06;;;;;;;1.45;1.20;;;21.10;96.40;;;;;;5000493;28;20609;-76
2022/08/10 08:25:33;;;;;;;1.73;1.33;;;21.20;95.60;;;;;;4999889;28;20034;-75
2022/08/10 08:28:00;;;;;;;2.55;1.48;;;21.20;95.40;;;;;;5004639;28;20120;-75
2022/08/10 08:30:27;;;;;;;1.23;0.85;;;21.30;95.00;;;;;;5003211;28;20057;-76
2022/08/10 08:32:55;;;;;;;1.30;1.00;;;21.50;92.90;;;;;;5004448;28;20030;-76
2022/08/10 08:35:21;;;;;;;1.85;1.00;;;21.50;93.90;;;;;;5008571;28;20573;-75
2022/08/10 08:37:48;;;;;;;1.27;1.13;;;21.50;94.00;;;;;;5000627;28;20034;-75
2022/08/10 08:40:35;;;;;;;0.75;0.75;;;21.60;92.10;;;;;;5006334;28;20057;-74
2022/08/10 08:43:20;;;;;;;0.98;0.85;;;21.60;91.60;;;;;;5007378;28;20026;-75
2022/08/10 08:46:03;;;;;;;0.95;0.88;;;21.70;92.00;;;;;;5003215;28;20033;-75
2022/08/10 08:48:55;;;;;;;1.83;1.25;;;21.70;90.90;;;;;;5006937;28;20072;-75
2022/08/10 08:51:47;;;;;;;2.40;1.13;;;21.80;90.30;;;;;;5008745;28;20404;-76
2022/08/10 08:54:54;;;;;;;1.30;1.00;;;21.80;87.90;;;;;;5007402;28;20038;-73
2022/08/10 08:57:47;;;;;;;0.90;0.90;;;21.80;90.00;;;;;;4984141;28;20153;-75
2022/08/10 09:00:31;;;;;;;1.10;1.00;;;21.80;88.10;;;;;;5005154;28;20033;-75
2022/08/10 09:03:20;;;;;;;1.17;0.85;;;21.90;88.00;;;;;;5008167;28;20157;-75
2022/08/10 09:06:04;;;;;;;0.95;0.95;;;22.10;85.60;;;;;;5011531;28;20038;-75
2022/08/10 09:09:08;;;;;;;0.75;0.60;;;22.10;85.20;;;;;;5004518;28;20022;-75
2022/08/10 09:11:49;;;;;;;0.80;0.80;;;22.10;82.80;;;;;;5007996;28;20026;-75
2022/08/10 09:14:34;;;;;;;0.70;0.70;;;22.20;84.10;;;;;;4999957;28;20552;-75
2022/08/10 09:17:22;;;;;;;1.63;1.02;;;22.20;83.50;;;;;;5003553;28;20140;-73
2022/08/10 09:20:28;;;;;;;0.70;0.70;;;22.20;84.40;;;;;;4992275;28;20018;-76
2022/08/10 09:23:17;;;;;;;3.38;0.80;;;22.50;80.20;;;;;;4989307;28;20046;-75
2022/08/10 09:25:52;;;;;;;1.02;0.90;;;22.40;79.10;;;;;;4995025;28;20436;-75
2022/08/10 09:28:26;;;;;;;1.15;0.98;;;22.60;80.60;;;;;;5010186;28;20101;-76
2022/08/10 09:31:03;;;;;;;1.00;0.90;;;22.70;77.80;;;;;;5009020;28;20041;-73
2022/08/10 09:34:04;;;;;;;1.10;1.00;;;22.30;81.60;;;;;;5004805;28;20029;-74
2022/08/10 09:37:06;;;;;;;2.17;0.80;;;22.10;81.30;;;;;;5005578;28;20033;-74
2022/08/10 09:39:43;;;;;;;3.08;0.70;;;22.40;71.20;;;;;;5006276;28;20421;-74
2022/08/10 09:42:39;;;;;;;1.40;0.90;;;22.70;73.20;;;;;;5005202;28;20061;-74
2022/08/10 09:45:19;;;;;;;0.75;0.75;;;22.80;75.50;;;;;;5006554;28;20033;-74
2022/08/10 09:48:13;;;;;;;0.55;0.55;;;22.90;74.30;;;;;;5007212;28;20030;-74
2022/08/10 09:50:56;;;;;;;0.70;0.70;;;23.00;72.80;;;;;;5009002;28;20428;-74
2022/08/10 09:53:45;;;;;;;0.60;0.60;;;23.00;73.00;;;;;;5006273;28;20033;-76
2022/08/10 09:56:28;;;;;;;1.08;0.80;;;23.70;69.80;;;;;;5003629;28;20042;-75
2022/08/10 09:59:25;;;;;;;0.70;0.70;;;23.80;67.70;;;;;;4999563;28;20029;-75
2022/08/10 10:02:10;;;;;;;1.88;0.63;;;23.60;68.00;;;;;;5004804;28;20040;-74
2022/08/10 10:05:02;;;;;;;0.52;0.52;;;23.50;67.40;;;;;;5003397;28;20056;-74
2022/08/10 10:07:28;;;;;;;1.02;0.73;;;23.70;64.20;;;;;;5007509;28;20443;-74
2022/08/10 10:10:02;;;;;;;0.70;0.70;;;23.80;68.90;;;;;;5007010;28;20544;-74
2022/08/10 10:12:57;;;;;;;0.60;0.60;;;24.10;65.70;;;;;;5005461;28;20037;-74
2022/08/10 10:16:14;;;;;;;1.50;0.88;;;24.30;64.90;;;;;;5002486;28;20392;-75
2022/08/10 10:19:23;;;;;;;1.23;0.80;;;24.00;64.70;;;;;;4974998;28;20061;-75
2022/08/10 10:22:11;;;;;;;3.10;0.80;;;24.40;64.10;;;;;;4968526;28;20091;-75
2022/08/10 10:24:55;;;;;;;0.63;0.60;;;24.60;61.60;;;;;;5007698;28;20112;-74
2022/08/10 10:27:46;;;;;;;1.02;0.82;;;23.80;67.00;;;;;;4998142;28;20107;-74
2022/08/10 10:30:13;;;;;;;1.13;0.88;;;23.80;66.80;;;;;;5002924;28;20469;-75
2022/08/10 10:32:51;;;;;;;1.23;0.85;;;24.00;60.60;;;;;;5005597;28;20116;-75
2022/08/10 10:35:36;;;;;;;1.02;0.77;;;24.50;59.10;;;;;;5004527;28;20168;-75
2022/08/10 10:38:06;;;;;;;0.88;0.82;;;25.00;62.90;;;;;;5005452;28;20664;-73
2022/08/10 10:40:38;;;;;;;0.70;0.70;;;25.30;61.10;;;;;;5003937;28;20125;-74
2022/08/10 10:43:12;;;;;;;2.17;1.05;;;25.60;59.60;;;;;;5002000;28;20021;-73
2022/08/10 10:45:49;;;;;;;0.70;0.70;;;25.20;64.30;;;;;;5005799;28;20037;-76
2022/08/10 10:48:40;;;;;;;1.73;0.60;;;25.30;61.40;;;;;;4999156;28;20056;-74
2022/08/10 10:51:20;;;;;;;1.03;0.80;;;25.40;58.70;;;;;;5007460;28;20052;-74
2022/08/10 10:54:14;;;;;;;1.27;0.85;;;25.30;60.50;;;;;;5007507;28;20608;-75
2022/08/10 10:57:00;;;;;;;0.50;0.50;;;24.80;62.40;;;;;;5002791;28;20039;-74
2022/08/10 10:59:47;;;;;;;2.53;1.00;;;24.50;59.40;;;;;;5005958;28;20029;-74
2022/08/10 11:02:42;;;;;;;0.98;0.85;;;25.10;60.90;;;;;;5005165;28;20022;-76
2022/08/10 11:05:36;;;;;;;2.70;0.95;;;24.80;61.90;;;;;;5006379;28;20109;-74
2022/08/10 11:08:08;;;;;;;0.95;0.93;;;25.20;59.50;;;;;;5002019;28;20030;-75
2022/08/10 11:10:45;;;;;;;0.98;0.77;;;26.00;58.00;;;;;;5003342;28;20030;-75
2022/08/10 11:13:33;;;;;;;0.98;0.90;;;26.50;52.40;;;;;;5002547;28;20508;-76
2022/08/10 11:16:09;;;;;;;4.80;1.00;;;25.70;58.00;;;;;;5004803;28;20022;-75
2022/08/10 11:18:47;;;;;;;1.65;1.13;;;25.60;56.30;;;;;;5005000;28;20446;-74
2022/08/10 11:21:50;;;;;;;0.77;0.75;;;25.60;55.70;;;;;;5005535;28;20034;-73
2022/08/10 11:24:42;;;;;;;2.58;1.00;;;25.70;57.40;;;;;;5006686;28;20038;-74
2022/08/10 11:27:16;;;;;;;1.90;0.80;;;26.00;57.10;;;;;;5004273;28;20441;-73
2022/08/10 11:30:01;;;;;;;1.67;0.70;;;24.90;59.70;;;;;;5007067;28;20034;-74
2022/08/10 11:32:54;;;;;;;0.80;0.80;;;24.90;59.20;;;;;;5001615;28;20049;-74
2022/08/10 11:35:47;;;;;;;0.93;0.90;;;25.00;59.20;;;;;;5002891;28;20029;-74
2022/08/10 11:38:45;;;;;;;0.85;0.85;;;25.50;57.00;;;;;;5004672;28;20038;-75
2022/08/10 11:41:28;;;;;;;0.80;0.80;;;25.80;56.00;;;;;;5002593;28;20057;-75
2022/08/10 11:44:24;;;;;;;0.50;0.50;;;25.70;58.90;;;;;;5006072;28;20026;-74
2022/08/10 11:46:58;;;;;;;0.88;0.88;;;27.30;52.60;;;;;;5001935;28;20052;-75
2022/08/10 11:49:32;;;;;;;0.90;0.90;;;27.40;56.20;;;;;;5000769;28;20046;-76
2022/08/10 11:52:07;;;;;;;0.70;0.70;;;27.40;55.40;;;;;;5005899;28;20040;-75
2022/08/10 11:54:41;;;;;;;0.90;0.80;;;;;;;;;;5003379;28;20040;-75
2022/08/10 11:57:09;;;;;;;0.95;0.90;;;27.80;54.10;;;;;;5001591;28;20029;-75
2022/08/10 12:02:23;;;;;;;0.90;0.90;;;28.40;52.60;;;;;;5000159;28;20045;-76
2022/08/10 12:05:05;;;;;;;1.10;1.00;;;26.70;54.20;;;;;;4999403;28;20117;-82
2022/08/10 12:07:31;;;;;;;1.02;1.02;;;27.30;56.00;;;;;;5004376;28;20027;-75
2022/08/10 12:09:58;;;;;;;0.70;0.70;;;;;;;;;;5000122;28;20040;-77
2022/08/10 12:12:28;;;;;;;0.63;0.63;;;29.50;46.20;;;;;;5001387;28;20881;-76
2022/08/10 12:15:09;;;;;;;1.55;0.85;;;29.70;50.20;;;;;;5003230;28;20499;-77
2022/08/10 12:17:50;;;;;;;0.80;0.80;;;30.30;45.90;;;;;;5006294;28;20022;-80
2022/08/10 12:20:35;;;;;;;;;;;30.10;47.10;;;;;;5002401;28;20101;-76
2022/08/10 12:23:20;;;;;;;1.55;0.80;;;29.60;48.60;;;;;;5004424;28;19929;-74
2022/08/10 12:26:13;;;;;;;0.73;0.73;;;29.70;48.20;;;;;;5001790;28;20025;-75
2022/08/10 12:28:46;;;;;;;1.05;0.80;;;29.50;49.10;;;;;;5004299;28;20029;-83
2022/08/10 12:31:14;;;;;;;1.00;0.70;;;29.20;49.30;;;;;;5001332;28;20516;-81
2022/08/10 12:33:53;;;;;;;2.28;1.25;;;29.80;47.40;;;;;;5002713;28;20060;-85
2022/08/10 12:36:25;;;;;;;2.03;0.82;;;30.10;47.30;;;;;;4999773;28;20449;-82
2022/08/10 12:39:35;;;;;;;1.98;1.15;;;30.10;48.10;;;;;;5002962;28;20060;-75
2022/08/10 12:42:37;;;;;;;0.93;0.90;;;30.00;47.90;;;;;;4992548;28;20100;-76
2022/08/10 12:45:15;;;;;;;1.10;1.00;;;30.40;49.50;;;;;;4959647;28;20039;-77
2022/08/10 12:48:00;;;;;;;0.73;0.73;;;31.70;44.40;;;;;;4958689;28;20050;-76
2022/08/10 12:50:51;;;;;;;1.20;1.00;;;31.20;44.40;;;;;;4959287;28;20065;-76
2022/08/10 12:53:41;;;;;;;0.70;0.70;;;32.20;40.20;;;;;;4958387;28;20035;-79
2022/08/10 12:56:07;;;;;;;0.68;0.65;;;33.10;43.10;;;;;;4959611;28;20047;-78
2022/08/10 12:58:38;;;;;;;1.20;0.80;;;33.40;42.50;;;;;;4959289;28;20090;-78
2022/08/10 13:01:05;;;;;;;1.02;1.00;;;34.70;37.30;;;;;;4961249;28;20514;-77
2022/08/10 13:03:34;;;;;;;0.60;0.60;;;35.30;40.90;;;;;;4959103;28;20097;-77
2022/08/10 13:06:04;;;;;;;0.80;0.80;;;35.50;42.60;;;;;;4962450;28;20474;-77
2022/08/10 13:11:19;;;;;;;0.82;0.82;;;37.00;35.50;;;;;;4962215;28;20069;-77
2022/08/10 13:13:47;;;;;;;4.63;1.00;;;35.60;36.90;;;;;;4964373;28;20633;-78
2022/08/10 13:16:15;;;;;;;1.27;1.10;;;37.30;37.70;;;;;;4989504;28;20030;-78
2022/08/10 13:18:44;;;;;;;1.25;0.80;;;36.10;36.80;;;;;;5004926;28;20061;-77
2022/08/10 13:21:15;;;;;;;0.75;0.75;;;36.90;36.50;;;;;;5006785;28;20139;-77
2022/08/10 13:24:00;;;;;;;0.70;0.70;;;37.60;35.20;;;;;;5005033;28;20037;-78
2022/08/10 13:26:27;;;;;;;0.73;0.73;;;37.20;34.50;;;;;;5008716;28;20079;-77
2022/08/10 13:28:58;;;;;;;1.13;0.82;;;37.10;35.40;;;;;;5000856;28;20029;-77